Time;durP1;ratioP1;P1;durP2;ratioP2;P2;SDS_P1;SDS_P2;PMS_P1;PMS_P2;Temp;Humidity;BMP_temperature;BMP_pressure;BME280_temperature;BME280_humidity;BME280_pressure;Samples;Min_cycle;Max_cycle;Signal;HPM_P1;HPM_P2
2024/04/21 00:03:31;;;;;;;;;;;5.40;99.90;;;;;;6632416;88;20567;-76
2024/04/21 00:13:32;;;;;;;;;;;5.20;99.90;;;;;;6636461;88;20102;-76
2024/04/21 00:23:36;;;;;;;;;;;5.20;99.90;;;;;;6634901;88;20148;-76
2024/04/21 00:33:37;;;;;;;;;;;5.30;99.90;;;;;;6634490;88;20590;-75
2024/04/21 00:43:37;;;;;;;;;;;5.20;99.90;;;;;;6630197;89;20049;-77
2024/04/21 00:53:38;;;;;;;;;;;5.30;99.90;;;;;;6644263;88;20063;-76
2024/04/21 01:03:38;;;;;;;;;;;5.30;99.90;;;;;;6632939;88;20062;-76
2024/04/21 01:13:39;;;;;;;;;;;5.30;99.90;;;;;;6636679;88;20075;-76
2024/04/21 01:23:39;;;;;;;;;;;5.30;99.90;;;;;;6634172;88;20059;-76
2024/04/21 01:33:40;;;;;;;;;;;5.30;99.90;;;;;;6629308;88;20115;-75
2024/04/21 01:43:40;;;;;;;;;;;5.30;99.90;;;;;;6637255;88;20106;-75
2024/04/21 01:53:41;;;;;;;;;;;5.10;99.90;;;;;;6651394;88;20733;-75
2024/04/21 02:03:41;;;;;;;;;;;4.30;99.90;;;;;;6651220;88;20063;-75
2024/04/21 02:13:42;;;;;;;;;;;4.20;99.90;;;;;;6638077;88;20562;-76
2024/04/21 02:23:46;;;;;;;;;;;4.30;99.90;;;;;;6649868;88;20192;-75
2024/04/21 02:33:46;;;;;;;;;;;4.20;99.90;;;;;;6639137;88;20076;-75
2024/04/21 02:43:47;;;;;;;;;;;4.20;99.90;;;;;;6636902;88;20072;-75
2024/04/21 02:53:47;;;;;;;;;;;4.20;99.90;;;;;;6638593;88;20058;-76
2024/04/21 03:03:48;;;;;;;;;;;3.90;99.90;;;;;;6647438;88;20082;-76
2024/04/21 03:13:48;;;;;;;;;;;4.00;99.90;;;;;;6642420;88;20062;-75
2024/04/21 03:23:51;;;;;;;;;;;3.10;99.90;;;;;;6647513;88;20059;-75
2024/04/21 03:33:51;;;;;;;;;;;2.60;99.90;;;;;;6643687;88;20115;-75
2024/04/21 03:43:52;;;;;;;;;;;2.50;99.90;;;;;;6646164;88;20092;-75
2024/04/21 03:53:53;;;;;;;;;;;2.20;99.90;;;;;;6627052;88;20075;-75
2024/04/21 04:03:53;;;;;;;;;;;2.10;99.90;;;;;;6629786;88;20085;-76
2024/04/21 04:13:53;;;;;;;;;;;2.00;99.90;;;;;;6623351;88;20460;-75
2024/04/21 04:23:54;;;;;;;;;;;2.10;99.90;;;;;;6645727;88;20143;-76
2024/04/21 04:33:55;;;;;;;;;;;2.10;99.90;;;;;;6628317;88;20084;-75
2024/04/21 04:43:55;;;;;;;;;;;2.00;99.90;;;;;;6636221;88;20116;-75
2024/04/21 04:53:56;;;;;;;;;;;2.20;99.90;;;;;;6643708;88;20527;-75
2024/04/21 05:03:56;;;;;;;;;;;2.20;99.90;;;;;;6640635;88;20058;-77
2024/04/21 05:13:57;;;;;;;;;;;2.40;99.90;;;;;;6630261;88;20071;-76
2024/04/21 05:23:57;;;;;;;;;;;2.30;99.90;;;;;;6636262;88;20087;-75
2024/04/21 05:33:57;;;;;;;;;;;2.70;99.90;;;;;;6634228;88;20137;-76
2024/04/21 05:43:58;;;;;;;;;;;3.10;99.90;;;;;;6641605;88;20484;-75
2024/04/21 05:53:58;;;;;;;;;;;3.50;99.90;;;;;;6635714;88;20079;-75
2024/04/21 06:03:59;;;;;;;;;;;3.80;99.90;;;;;;6638335;88;20071;-76
2024/04/21 06:14:08;;;;;;;;;;;3.80;99.90;;;;;;6638064;88;20084;-77
2024/04/21 06:24:09;;;;;;;;;;;3.80;99.90;;;;;;6653348;88;20058;-77
2024/04/21 06:34:10;;;;;;;;;;;4.20;99.90;;;;;;6638145;88;20572;-77
2024/04/21 06:44:10;;;;;;;;;;;4.30;99.90;;;;;;6634440;89;20061;-77
2024/04/21 06:54:10;;;;;;;;;;;4.30;99.90;;;;;;6636208;88;20229;-77
2024/04/21 07:04:11;;;;;;;;;;;4.40;99.90;;;;;;6633687;88;20487;-78
2024/04/21 07:14:11;;;;;;;;;;;4.80;99.90;;;;;;6639020;88;20117;-77
2024/04/21 07:24:12;;;;;;;;;;;4.70;99.90;;;;;;6636486;88;20099;-76
2024/04/21 07:34:12;;;;;;;;;;;4.90;99.90;;;;;;6634774;88;20143;-76
2024/04/21 07:44:12;;;;;;;;;;;5.30;99.90;;;;;;6627964;88;20070;-76
2024/04/21 07:54:13;;;;;;;;;;;5.30;99.90;;;;;;6639280;88;20150;-76
2024/04/21 08:04:14;;;;;;;;;;;5.40;99.90;;;;;;6628069;88;20115;-77
2024/04/21 08:14:14;;;;;;;;;;;5.40;99.90;;;;;;6627866;88;20062;-76
2024/04/21 08:24:15;;;;;;;;;;;5.50;99.90;;;;;;6631868;88;20075;-77
2024/04/21 08:34:16;;;;;;;;;;;5.40;99.90;;;;;;6640260;88;20144;-76
2024/04/21 08:44:16;;;;;;;;;;;5.50;99.90;;;;;;6640976;88;20074;-76
2024/04/21 08:54:17;;;;;;;;;;;5.50;99.90;;;;;;6653267;88;20046;-77
2024/04/21 09:04:17;;;;;;;;;;;5.60;99.90;;;;;;6649037;88;20049;-76
2024/04/21 09:14:17;;;;;;;;;;;5.60;99.90;;;;;;6632142;88;20566;-78
2024/04/21 09:24:18;;;;;;;;;;;5.80;99.90;;;;;;6642930;88;20482;-78
2024/04/21 09:34:19;;;;;;;;;;;5.90;99.90;;;;;;6643628;89;20351;-78
2024/04/21 09:44:20;;;;;;;;;;;5.90;99.90;;;;;;6637482;88;20087;-77
2024/04/21 09:54:24;;;;;;;;;;;6.60;99.90;;;;;;6636059;88;20525;-78
2024/04/21 10:04:28;;;;;;;;;;;7.20;99.90;;;;;;6633107;89;20190;-77
2024/04/21 10:14:29;;;;;;;;;;;7.80;99.90;;;;;;6639628;88;20070;-77
2024/04/21 10:24:30;;;;;;;;;;;9.50;99.90;;;;;;6636864;88;20085;-78
2024/04/21 10:34:31;;;;;;;;;;;9.70;99.90;;;;;;6629054;88;20104;-77
2024/04/21 10:44:31;;;;;;;;;;;9.80;99.90;;;;;;6646514;88;20414;-76
2024/04/21 10:54:32;;;;;;;;;;;10.40;99.90;;;;;;6637220;88;20461;-79
2024/04/21 11:04:34;;;;;;;;;;;10.50;99.90;;;;;;6638778;88;20522;-76
2024/04/21 11:14:34;;;;;;;;;;;9.90;99.90;;;;;;6642145;88;20071;-79
2024/04/21 11:24:37;;;;;;;;;;;10.00;99.90;;;;;;6632979;88;20067;-79
2024/04/21 11:34:38;;;;;;;;;;;11.90;99.90;;;;;;6633341;89;20652;-78
2024/04/21 11:54:42;;;;;;;;;;;10.30;99.90;;;;;;6748978;88;20074;-79
2024/04/21 12:04:42;;;;;;;;;;;13.50;99.90;;;;;;6753674;88;20088;-78
2024/04/21 12:14:43;;;;;;;;;;;12.90;99.60;;;;;;6753213;88;20037;-78
2024/04/21 12:24:43;;;;;;;;;;;11.70;99.90;;;;;;6748358;88;20051;-78
2024/04/21 12:34:44;;;;;;;;;;;11.50;99.90;;;;;;6751758;88;20441;-78
2024/04/21 12:44:44;;;;;;;;;;;12.00;99.90;;;;;;6748278;88;20046;-79
2024/04/21 12:54:45;;;;;;;;;;;13.60;99.90;;;;;;6750940;88;20048;-78
2024/04/21 13:04:45;;;;;;;;;;;13.60;99.90;;;;;;6741387;85;33651;-78
2024/04/21 13:14:46;;;;;;;;;;;14.90;99.10;;;;;;6729444;85;43292;-77
2024/04/21 13:24:47;;;;;;;;;;;12.40;99.90;;;;;;6735629;88;20665;-78
2024/04/21 13:34:47;;;;;;;;;;;11.80;99.90;;;;;;6741408;88;20069;-81
2024/04/21 13:44:48;;;;;;;;;;;13.90;97.90;;;;;;6726873;88;20114;-80
2024/04/21 13:54:49;;;;;;;;;;;12.50;99.90;;;;;;6734110;88;20153;-83
2024/04/21 14:04:49;;;;;;;;;;;11.40;99.90;;;;;;6721669;88;20059;-81
2024/04/21 14:14:50;;;;;;;;;;;12.40;99.90;;;;;;6721036;88;20064;-79
2024/04/21 14:24:50;;;;;;;;;;;12.60;99.30;;;;;;6718017;88;20072;-80
2024/04/21 14:34:51;;;;;;;;;;;11.90;99.90;;;;;;6709676;88;20126;-81
2024/04/21 14:44:52;;;;;;;;;;;9.80;99.90;;;;;;6716164;88;20121;-80
2024/04/21 14:54:53;;;;;;;;;;;10.30;99.90;;;;;;6726390;88;20076;-80
2024/04/21 15:04:58;;;;;;;;;;;10.40;99.90;;;;;;6723138;88;20059;-81
2024/04/21 15:14:58;;;;;;;;;;;11.10;99.90;;;;;;6720187;88;20060;-81
2024/04/21 15:24:59;;;;;;;;;;;11.10;99.80;;;;;;6719744;88;20108;-81
2024/04/21 15:34:59;;;;;;;;;;;11.90;99.70;;;;;;6723693;88;20040;-80
2024/04/21 15:45:00;;;;;;;;;;;10.80;99.90;;;;;;6729575;88;20085;-80
2024/04/21 15:55:05;;;;;;;;;;;10.70;99.90;;;;;;6716668;88;20067;-80
2024/04/21 16:05:05;;;;;;;;;;;10.60;98.60;;;;;;6733486;88;20072;-79
2024/04/21 16:15:07;;;;;;;;;;;10.40;98.40;;;;;;6714108;88;20056;-80
2024/04/21 16:25:08;;;;;;;;;;;10.80;99.60;;;;;;6724666;88;20534;-79
2024/04/21 16:35:09;;;;;;;;;;;10.80;99.70;;;;;;6709837;88;20605;-79
2024/04/21 16:45:09;;;;;;;;;;;10.80;98.60;;;;;;6707902;88;20056;-79
2024/04/21 16:55:10;;;;;;;;;;;11.70;97.50;;;;;;6716540;88;20070;-78
2024/04/21 17:05:11;;;;;;;;;;;10.70;97.00;;;;;;6734187;88;20522;-79
2024/04/21 17:15:12;;;;;;;;;;;10.10;97.00;;;;;;6729926;88;20082;-80
2024/04/21 17:25:12;;;;;;;;;;;9.30;97.40;;;;;;6736644;88;20123;-78
2024/04/21 17:35:12;;;;;;;;;;;8.80;98.50;;;;;;6734705;88;20713;-81
2024/04/21 17:55:17;;;;;;;;;;;8.40;99.90;;;;;;6622795;88;20118;-78
2024/04/21 18:05:18;;;;;;;;;;;8.20;99.90;;;;;;6624371;88;20164;-80
2024/04/21 18:15:18;;;;;;;;;;;8.00;99.90;;;;;;6625346;88;20081;-76
2024/04/21 18:25:19;;;;;;;;;;;7.70;99.90;;;;;;6619754;89;20116;-78
2024/04/21 18:35:20;;;;;;;;;;;7.50;99.90;;;;;;6629528;89;20085;-78
2024/04/21 18:45:20;;;;;;;;;;;7.40;99.90;;;;;;6618771;88;20462;-78
2024/04/21 18:55:21;;;;;;;;;;;7.30;99.90;;;;;;6618319;88;20207;-78
2024/04/21 19:05:21;;;;;;;;;;;7.20;99.90;;;;;;6617131;89;20088;-79
2024/04/21 19:15:22;;;;;;;;;;;7.10;99.90;;;;;;6614875;88;20178;-77
2024/04/21 19:25:22;;;;;;;;;;;6.90;99.90;;;;;;6613134;88;20191;-75
2024/04/21 19:35:23;;;;;;;;;;;6.60;99.90;;;;;;6614195;89;20521;-77
2024/04/21 19:45:23;;;;;;;;;;;6.20;99.90;;;;;;6619850;89;20050;-77
2024/04/21 19:55:24;;;;;;;;;;;6.00;99.90;;;;;;6612796;89;20290;-78
2024/04/21 20:05:24;;;;;;;;;;;5.90;99.90;;;;;;6610370;89;20090;-76
2024/04/21 20:25:44;;;;;;;;;;;5.50;99.90;;;;;;6612952;89;20055;-78
2024/04/21 20:35:46;;;;;;;;;;;5.30;99.90;;;;;;6610549;89;20079;-77
2024/04/21 20:45:47;;;;;;;;;;;5.20;99.90;;;;;;6607919;89;20088;-77
2024/04/21 20:55:47;;;;;;;;;;;5.00;99.90;;;;;;6618008;89;21182;-76
2024/04/21 21:05:48;;;;;;;;;;;5.10;99.90;;;;;;6621389;89;20050;-76
2024/04/21 21:15:48;;;;;;;;;;;4.90;99.90;;;;;;6624391;89;20141;-76
2024/04/21 21:25:49;;;;;;;;;;;4.70;99.90;;;;;;6622787;89;20239;-76
2024/04/21 21:35:56;;;;;;;;;;;4.50;99.90;;;;;;6623500;88;20051;-75
2024/04/21 21:45:56;;;;;;;;;;;4.30;99.90;;;;;;6643892;89;20094;-76
2024/04/21 21:55:57;;;;;;;;;;;4.20;99.90;;;;;;6607425;89;20558;-75
2024/04/21 22:05:57;;;;;;;;;;;3.90;99.90;;;;;;6617086;89;20093;-75
2024/04/21 22:16:01;;;;;;;;;;;3.80;99.90;;;;;;6618237;89;20067;-75
2024/04/21 22:26:03;;;;;;;;;;;3.70;99.90;;;;;;6608003;89;20059;-76
2024/04/21 22:36:05;;;;;;;;;;;3.50;99.90;;;;;;6609186;89;20085;-75
2024/04/21 22:46:06;;;;;;;;;;;3.40;99.90;;;;;;6607156;89;20075;-76
2024/04/21 22:56:07;;;;;;;;;;;3.20;99.90;;;;;;6611145;89;20059;-76
2024/04/21 23:06:08;;;;;;;;;;;3.10;99.90;;;;;;6606642;89;20133;-75
2024/04/21 23:16:11;;;;;;;;;;;2.80;99.90;;;;;;6608720;89;20067;-75
2024/04/21 23:26:11;;;;;;;;;;;2.70;99.90;;;;;;6609535;89;20070;-75
2024/04/21 23:36:12;;;;;;;;;;;2.70;99.90;;;;;;6606697;89;20093;-75
2024/04/21 23:46:12;;;;;;;;;;;2.50;99.90;;;;;;6621099;78;20091;-77
2024/04/21 23:56:15;;;;;;;;;;;2.60;99.90;;;;;;6629568;89;20073;-75
